Back to Top

Language: 

My Weather Underground Personal Weather Station Historical Data with Graphs...

Delerius Weather Station Historical Data
Daily Summary for January 3, 2018 Units:  English    Metric   Both
« Previous Day
Next Day »
Daily Weekly Monthly Yearly Custom
  High: Low: Average:
Temperature: 47.1 °F 42.8 °F 45.1 °F
Dew Point: 42.2 °F 37.9 °F 40.7 °F
Humidity: 91 % 73 % 85 %
Wind Speed: 30.0 mph 11.0 mph 20.4 mph
Wind Gust: 46.0 mph - -
Wind:- - West
Pressure: 29.38 in 28.91 in -
Precipitation: 0.16 in    
Historical Graphs
 
 
Tabular Data for January 3, 2018
Time Temperature Dew Point Pressure Wind Wind Speed Wind Gust Humidity Rainfall Rate (Hourly) solar Conditions
00:04 47.1 °F 39.9 °F 28.96 in WSW 24.0 mph 33.0 mph 76 % 0.00 in 0 W/m2
00:05 47.1 °F 39.9 °F 28.96 in WSW 24.0 mph 33.0 mph 76 % 0.00 in 0 W/m2
00:10 46.9 °F 39.8 °F 28.95 in West 23.0 mph 35.0 mph 76 % 0.00 in 0 W/m2
00:11 47.1 °F 39.9 °F 28.95 in West 23.0 mph 35.0 mph 76 % 0.00 in 0 W/m2
00:15 47.1 °F 39.9 °F 28.96 in West 22.0 mph 32.0 mph 76 % 0.00 in 0 W/m2
00:20 46.9 °F 39.8 °F 28.96 in West 19.0 mph 26.0 mph 76 % 0.00 in 0 W/m2
00:25 47.1 °F 39.9 °F 28.96 in West 22.0 mph 32.0 mph 76 % 0.00 in 0 W/m2
00:26 47.1 °F 39.9 °F 28.96 in West 20.0 mph 32.0 mph 76 % 0.00 in 0 W/m2
00:35 47.1 °F 39.9 °F 28.96 in WSW 17.0 mph 26.0 mph 76 % 0.00 in 0 W/m2
00:39 47.1 °F 39.6 °F 28.96 in WSW 22.0 mph 35.0 mph 75 % 0.00 in 0 W/m2
00:41 47.1 °F 39.6 °F 28.96 in West 19.0 mph 29.0 mph 75 % 0.00 in 0 W/m2
00:46 47.1 °F 39.9 °F 28.96 in West 22.0 mph 31.0 mph 76 % 0.00 in 0 W/m2
00:48 46.9 °F 39.8 °F 28.95 in WSW 23.0 mph 35.0 mph 76 % 0.00 in 0 W/m2
00:51 46.8 °F 39.6 °F 28.96 in WSW 22.0 mph 35.0 mph 76 % 0.00 in 0 W/m2
00:56 46.8 °F 39.3 °F 28.95 in WSW 24.0 mph 39.0 mph 75 % 0.00 in 0 W/m2
00:57 46.8 °F 39.3 °F 28.95 in West 20.0 mph 34.0 mph 75 % 0.00 in 0 W/m2
01:02 46.6 °F 38.4 °F 28.94 in WSW 30.0 mph 46.0 mph 73 % 0.00 in 0 W/m2
01:07 46.6 °F 38.4 °F 28.94 in WSW 24.0 mph 37.0 mph 73 % 0.00 in 0 W/m2
01:10 46.6 °F 38.4 °F 28.92 in West 24.0 mph 40.0 mph 73 % 0.00 in 0 W/m2
01:11 46.6 °F 38.4 °F 28.93 in West 23.0 mph 34.0 mph 73 % 0.00 in 0 W/m2
01:16 46.2 °F 38.0 °F 28.92 in West 22.0 mph 31.0 mph 73 % 0.00 in 0 W/m2
01:17 46.2 °F 38.0 °F 28.92 in West 22.0 mph 32.0 mph 73 % 0.00 in 0 W/m2
01:19 46.2 °F 38.0 °F 28.92 in West 23.0 mph 36.0 mph 73 % 0.00 in 0 W/m2
01:24 46.0 °F 37.9 °F 28.92 in West 24.0 mph 34.0 mph 73 % 0.00 in 0 W/m2
01:28 46.0 °F 38.2 °F 28.93 in West 20.0 mph 38.0 mph 74 % 0.00 in 0 W/m2
01:32 46.0 °F 38.2 °F 28.92 in West 23.0 mph 39.0 mph 74 % 0.00 in 0 W/m2
01:37 46.2 °F 38.7 °F 28.94 in West 18.0 mph 30.0 mph 75 % 0.00 in 0 W/m2
01:41 46.0 °F 38.9 °F 28.94 in West 23.0 mph 32.0 mph 76 % 0.00 in 0 W/m2
01:46 45.1 °F 39.0 °F 28.95 in WSW 23.0 mph 46.0 mph 79 % 0.00 in 0 W/m2
01:51 44.2 °F 38.5 °F 28.94 in WSW 22.0 mph 33.0 mph 80 % 0.00 in 0 W/m2
01:55 43.9 °F 38.1 °F 28.93 in West 21.0 mph 37.0 mph 80 % 0.00 in 0 W/m2
02:00 43.5 °F 38.1 °F 28.93 in West 24.0 mph 43.0 mph 81 % 0.00 in 0 W/m2
02:01 43.5 °F 38.1 °F 28.93 in West 24.0 mph 43.0 mph 81 % 0.00 in 0 W/m2
02:02 43.5 °F 38.1 °F 28.92 in West 23.0 mph 40.0 mph 81 % 0.00 in 0 W/m2
02:07 43.7 °F 38.6 °F 28.92 in West 26.0 mph 41.0 mph 82 % 0.00 in 0 W/m2
02:08 43.7 °F 38.6 °F 28.92 in West 24.0 mph 39.0 mph 82 % 0.00 in 0 W/m2
02:12 43.9 °F 38.4 °F 28.91 in West 25.0 mph 40.0 mph 81 % 0.00 in 0 W/m2
02:14 43.9 °F 38.4 °F 28.92 in West 24.0 mph 37.0 mph 81 % 0.00 in 0 W/m2
02:19 44.1 °F 38.6 °F 28.92 in WSW 21.0 mph 39.0 mph 81 % 0.00 in 0 W/m2
02:22 44.1 °F 38.3 °F 28.91 in WSW 24.0 mph 36.0 mph 80 % 0.00 in 0 W/m2
02:28 44.2 °F 38.5 °F 28.92 in West 27.0 mph 37.0 mph 80 % 0.00 in 0 W/m2
02:34 44.2 °F 38.5 °F 28.92 in West 24.0 mph 38.0 mph 80 % 0.00 in 0 W/m2
02:39 44.2 °F 38.5 °F 28.92 in West 21.0 mph 36.0 mph 80 % 0.00 in 0 W/m2
02:40 44.2 °F 38.5 °F 28.91 in West 22.0 mph 36.0 mph 80 % 0.00 in 0 W/m2
02:44 44.4 °F 38.3 °F 28.91 in West 30.0 mph 45.0 mph 79 % 0.00 in 0 W/m2
02:51 44.2 °F 38.5 °F 28.92 in West 25.0 mph 42.0 mph 80 % 0.00 in 0 W/m2
02:56 44.4 °F 38.3 °F 28.92 in West 29.0 mph 43.0 mph 79 % 0.00 in 0 W/m2
03:01 44.4 °F 38.3 °F 28.92 in West 23.0 mph 38.0 mph 79 % 0.00 in 0 W/m2
03:02 44.4 °F 38.3 °F 28.92 in West 22.0 mph 33.0 mph 79 % 0.00 in 0 W/m2
03:03 44.4 °F 38.3 °F 28.92 in West 24.0 mph 42.0 mph 79 % 0.00 in 0 W/m2
03:13 44.2 °F 38.5 °F 28.91 in West 24.0 mph 35.0 mph 80 % 0.00 in 0 W/m2
03:14 44.2 °F 38.5 °F 28.92 in West 26.0 mph 40.0 mph 80 % 0.00 in 0 W/m2
03:20 44.1 °F 38.9 °F 28.91 in West 22.0 mph 33.0 mph 82 % 0.00 in 0 W/m2
03:21 44.1 °F 38.9 °F 28.92 in West 20.0 mph 31.0 mph 82 % 0.00 in 0 W/m2
03:26 43.9 °F 38.7 °F 28.92 in West 24.0 mph 34.0 mph 82 % 0.00 in 0 W/m2
03:30 43.9 °F 38.7 °F 28.92 in West 21.0 mph 36.0 mph 82 % 0.00 in 0 W/m2
03:35 43.9 °F 38.7 °F 28.92 in West 24.0 mph 35.0 mph 82 % 0.00 in 0 W/m2
03:40 43.9 °F 38.7 °F 28.91 in West 24.0 mph 36.0 mph 82 % 0.00 in 0 W/m2
03:43 43.9 °F 38.7 °F 28.91 in West 25.0 mph 40.0 mph 82 % 0.00 in 0 W/m2
03:48 43.9 °F 39.1 °F 28.92 in West 25.0 mph 35.0 mph 83 % 0.00 in 0 W/m2
03:49 43.9 °F 39.1 °F 28.92 in WSW 24.0 mph 35.0 mph 83 % 0.00 in 0 W/m2
03:53 43.9 °F 39.1 °F 28.92 in West 23.0 mph 35.0 mph 83 % 0.00 in 0 W/m2
03:58 43.9 °F 38.7 °F 28.92 in West 26.0 mph 42.0 mph 82 % 0.00 in 0 W/m2
04:03 44.1 °F 38.6 °F 28.93 in West 25.0 mph 38.0 mph 81 % 0.00 in 0 W/m2
04:04 44.1 °F 38.6 °F 28.92 in West 22.0 mph 33.0 mph 81 % 0.00 in 0 W/m2
04:06 44.1 °F 38.9 °F 28.92 in West 19.0 mph 27.0 mph 82 % 0.00 in 0 W/m2
04:10 44.1 °F 38.9 °F 28.92 in West 29.0 mph 41.0 mph 82 % 0.00 in 0 W/m2
04:13 44.1 °F 38.9 °F 28.93 in West 24.0 mph 35.0 mph 82 % 0.00 in 0 W/m2
04:15 44.1 °F 39.2 °F 28.93 in West 23.0 mph 39.0 mph 83 % 0.00 in 0 W/m2
04:19 43.9 °F 39.1 °F 28.93 in West 23.0 mph 32.0 mph 83 % 0.00 in 0 W/m2
04:23 43.7 °F 39.2 °F 28.93 in West 25.0 mph 41.0 mph 84 % 0.00 in 0 W/m2
04:26 43.5 °F 39.0 °F 28.94 in West 25.0 mph 43.0 mph 84 % 0.00 in 0 W/m2
04:31 43.2 °F 39.0 °F 28.94 in West 22.0 mph 31.0 mph 85 % 0.00 in 0 W/m2
04:36 43.0 °F 39.1 °F 28.94 in West 22.0 mph 33.0 mph 86 % 0.00 in 0 W/m2
04:39 43.0 °F 39.1 °F 28.94 in West 23.0 mph 36.0 mph 86 % 0.00 in 0 W/m2
04:42 43.2 °F 39.0 °F 28.94 in West 27.0 mph 39.0 mph 85 % 0.00 in 0 W/m2
04:47 43.5 °F 39.0 °F 28.94 in West 22.0 mph 41.0 mph 84 % 0.00 in 0 W/m2
04:53 43.9 °F 39.1 °F 28.94 in West 22.0 mph 37.0 mph 83 % 0.00 in 0 W/m2
04:55 44.1 °F 39.2 °F 28.95 in West 23.0 mph 36.0 mph 83 % 0.00 in 0 W/m2
05:00 44.2 °F 39.4 °F 28.95 in West 19.0 mph 33.0 mph 83 % 0.00 in 0 W/m2
05:01 44.2 °F 39.4 °F 28.95 in West 22.0 mph 33.0 mph 83 % 0.00 in 0 W/m2
05:05 44.4 °F 39.3 °F 28.95 in West 25.0 mph 36.0 mph 82 % 0.00 in 0 W/m2
05:10 44.4 °F 39.6 °F 28.95 in West 28.0 mph 42.0 mph 83 % 0.00 in 0 W/m2
05:12 44.4 °F 39.6 °F 28.96 in West 26.0 mph 39.0 mph 83 % 0.00 in 0 W/m2
05:16 44.2 °F 39.4 °F 28.96 in West 27.0 mph 41.0 mph 83 % 0.00 in 0 W/m2
05:20 44.4 °F 39.6 °F 28.96 in West 26.0 mph 37.0 mph 83 % 0.00 in 0 W/m2
05:23 44.6 °F 39.8 °F 28.97 in West 28.0 mph 43.0 mph 83 % 0.00 in 0 W/m2
05:28 44.4 °F 39.6 °F 28.97 in West 24.0 mph 37.0 mph 83 % 0.00 in 0 W/m2
05:33 44.4 °F 39.9 °F 28.98 in West 24.0 mph 34.0 mph 84 % 0.00 in 0 W/m2
05:37 44.2 °F 39.7 °F 28.98 in West 21.0 mph 37.0 mph 84 % 0.00 in 0 W/m2
05:38 44.2 °F 40.0 °F 28.98 in West 19.0 mph 30.0 mph 85 % 0.00 in 0 W/m2
05:42 44.2 °F 39.7 °F 28.98 in West 22.0 mph 33.0 mph 84 % 0.00 in 0 W/m2
05:47 44.6 °F 39.8 °F 28.99 in West 27.0 mph 41.0 mph 83 % 0.00 in 0 W/m2
05:48 44.6 °F 39.8 °F 28.99 in West 28.0 mph 38.0 mph 83 % 0.00 in 0 W/m2
05:51 44.8 °F 39.9 °F 28.99 in WNW 24.0 mph 41.0 mph 83 % 0.00 in 0 W/m2
05:54 44.8 °F 39.6 °F 29.00 in West 28.0 mph 45.0 mph 82 % 0.00 in 0 W/m2
06:01 45.0 °F 39.8 °F 29.00 in West 28.0 mph 46.0 mph 82 % 0.00 in 0 W/m2
06:06 45.0 °F 39.8 °F 29.01 in West 26.0 mph 41.0 mph 82 % 0.00 in 0 W/m2
06:11 45.0 °F 39.8 °F 29.01 in West 20.0 mph 33.0 mph 82 % 0.00 in 0 W/m2
06:13 45.0 °F 39.8 °F 29.01 in West 21.0 mph 32.0 mph 82 % 0.00 in 0 W/m2
06:20 45.0 °F 39.8 °F 29.01 in West 26.0 mph 41.0 mph 82 % 0.00 in 0 W/m2
06:22 45.0 °F 39.5 °F 29.01 in WNW 28.0 mph 44.0 mph 81 % 0.00 in 0 W/m2
06:27 45.0 °F 39.5 °F 29.02 in West 26.0 mph 38.0 mph 81 % 0.00 in 0 W/m2
06:32 45.1 °F 39.3 °F 29.03 in West 24.0 mph 41.0 mph 80 % 0.00 in 0 W/m2
06:35 45.1 °F 39.7 °F 29.03 in West 23.0 mph 33.0 mph 81 % 0.00 in 0 W/m2
06:40 45.1 °F 39.7 °F 29.03 in West 24.0 mph 34.0 mph 81 % 0.00 in 0 W/m2
06:41 45.1 °F 39.7 °F 29.03 in West 25.0 mph 35.0 mph 81 % 0.00 in 0 W/m2
06:46 45.1 °F 39.7 °F 29.04 in West 23.0 mph 37.0 mph 81 % 0.00 in 0 W/m2
06:51 45.1 °F 39.7 °F 29.04 in West 22.0 mph 36.0 mph 81 % 0.00 in 0 W/m2
06:54 45.0 °F 39.5 °F 29.04 in West 24.0 mph 39.0 mph 81 % 0.00 in 0 W/m2
06:55 45.1 °F 39.3 °F 29.03 in West 26.0 mph 44.0 mph 80 % 0.00 in 0 W/m2
07:00 45.1 °F 39.3 °F 29.05 in West 24.0 mph 38.0 mph 80 % 0.00 in 0 W/m2
07:05 45.1 °F 39.3 °F 29.06 in WNW 25.0 mph 33.0 mph 80 % 0.00 in 0 W/m2
07:06 45.3 °F 39.5 °F 29.05 in WNW 26.0 mph 38.0 mph 80 % 0.00 in 0 W/m2
07:08 45.3 °F 39.5 °F 29.06 in West 24.0 mph 38.0 mph 80 % 0.00 in 0 W/m2
07:13 45.3 °F 39.5 °F 29.06 in West 22.0 mph 42.0 mph 80 % 0.00 in 0 W/m2
07:18 45.1 °F 39.3 °F 29.07 in West 26.0 mph 37.0 mph 80 % 0.00 in 0 W/m2
07:19 45.3 °F 39.5 °F 29.07 in West 24.0 mph 37.0 mph 80 % 0.00 in 0 W/m2
07:24 45.3 °F 39.5 °F 29.07 in WNW 25.0 mph 37.0 mph 80 % 0.00 in 0 W/m2
07:25 45.3 °F 39.5 °F 29.08 in WNW 25.0 mph 37.0 mph 80 % 0.00 in 0 W/m2
07:30 45.3 °F 39.5 °F 29.08 in WNW 23.0 mph 36.0 mph 80 % 0.00 in 0 W/m2
07:32 45.3 °F 39.5 °F 29.08 in West 24.0 mph 38.0 mph 80 % 0.00 in 0 W/m2
07:38 45.1 °F 40.3 °F 29.09 in WNW 22.0 mph 38.0 mph 83 % 0.00 in 0 W/m2
07:41 44.8 °F 40.2 °F 29.09 in West 22.0 mph 35.0 mph 84 % 0.00 in 0 W/m2
07:48 44.4 °F 40.2 °F 29.09 in WNW 22.0 mph 40.0 mph 85 % 0.00 in 0 W/m2
07:49 44.2 °F 40.0 °F 29.09 in WNW 20.0 mph 40.0 mph 85 % 0.00 in 0 W/m2
07:54 44.4 °F 40.2 °F 29.09 in WNW 22.0 mph 33.0 mph 85 % 0.00 in 0 W/m2
07:55 44.4 °F 40.2 °F 29.09 in WNW 22.0 mph 33.0 mph 85 % 0.00 in 0 W/m2
08:00 44.8 °F 40.2 °F 29.10 in WNW 25.0 mph 38.0 mph 84 % 0.00 in 0 W/m2
08:01 44.8 °F 39.9 °F 29.10 in WNW 23.0 mph 37.0 mph 83 % 0.00 in 0 W/m2
08:06 45.1 °F 40.0 °F 29.10 in West 21.0 mph 42.0 mph 82 % 0.00 in 0 W/m2
08:11 45.3 °F 40.1 °F 29.11 in West 24.0 mph 36.0 mph 82 % 0.00 in 0 W/m2
08:16 45.1 °F 40.0 °F 29.11 in West 25.0 mph 38.0 mph 82 % 0.00 in 0 W/m2
08:21 45.1 °F 40.0 °F 29.12 in West 23.0 mph 35.0 mph 82 % 0.00 in 0 W/m2
08:25 45.1 °F 40.0 °F 29.12 in WNW 20.0 mph 30.0 mph 82 % 0.00 in 0 W/m2
08:34 45.1 °F 39.7 °F 29.13 in West 26.0 mph 42.0 mph 81 % 0.00 in 5 W/m2
08:36 45.3 °F 39.8 °F 29.13 in West 24.0 mph 35.0 mph 81 % 0.00 in 7 W/m2
08:40 45.3 °F 39.8 °F 29.13 in West 28.0 mph 43.0 mph 81 % 0.00 in 5 W/m2
08:43 45.5 °F 39.7 °F 29.13 in West 25.0 mph 38.0 mph 80 % 0.00 in 5 W/m2
08:48 45.7 °F 39.9 °F 29.14 in West 26.0 mph 41.0 mph 80 % 0.00 in 5 W/m2
08:53 45.7 °F 40.2 °F 29.14 in WNW 25.0 mph 37.0 mph 81 % 0.00 in 5 W/m2
08:56 45.7 °F 40.2 °F 29.15 in WNW 20.0 mph 30.0 mph 81 % 0.00 in 5 W/m2
09:01 45.3 °F 40.5 °F 29.15 in WNW 24.0 mph 37.0 mph 83 % 0.00 in 12 W/m2
09:02 45.3 °F 40.8 °F 29.15 in WNW 18.0 mph 31.0 mph 84 % 0.00 in 7 W/m2
09:04 45.1 °F 40.6 °F 29.16 in WNW 19.0 mph 30.0 mph 84 % 0.00 in 11 W/m2
09:09 45.0 °F 40.7 °F 29.16 in West 18.0 mph 28.0 mph 85 % 0.00 in 16 W/m2
09:10 45.0 °F 41.0 °F 29.16 in WNW 19.0 mph 31.0 mph 86 % 0.01 in 21 W/m2
09:18 44.8 °F 41.1 °F 29.17 in WNW 20.0 mph 30.0 mph 87 % 0.01 in 26 W/m2
09:23 44.8 °F 41.1 °F 29.18 in WNW 18.0 mph 35.0 mph 87 % 0.01 in 18 W/m2
09:28 45.0 °F 41.0 °F 29.18 in WNW 18.0 mph 28.0 mph 86 % 0.01 in 21 W/m2
09:29 45.0 °F 41.0 °F 29.18 in WNW 18.0 mph 30.0 mph 86 % 0.01 in 25 W/m2
09:33 45.1 °F 40.9 °F 29.18 in WNW 20.0 mph 29.0 mph 85 % 0.01 in 32 W/m2
09:35 45.1 °F 40.9 °F 29.18 in WNW 21.0 mph 30.0 mph 85 % 0.01 in 19 W/m2
09:40 45.3 °F 41.1 °F 29.19 in WNW 20.0 mph 33.0 mph 85 % 0.01 in 16 W/m2
09:42 45.1 °F 41.2 °F 29.19 in WNW 21.0 mph 33.0 mph 86 % 0.01 in 26 W/m2
09:47 45.0 °F 41.3 °F 29.19 in WNW 16.0 mph 23.0 mph 87 % 0.01 in 49 W/m2
09:52 44.8 °F 41.4 °F 29.19 in WNW 19.0 mph 31.0 mph 88 % 0.01 in 72 W/m2
09:54 44.8 °F 41.4 °F 29.19 in West 19.0 mph 36.0 mph 88 % 0.01 in 46 W/m2
09:59 45.0 °F 41.6 °F 29.19 in WNW 20.0 mph 33.0 mph 88 % 0.01 in 83 W/m2
10:03 45.0 °F 41.6 °F 29.19 in WNW 19.0 mph 32.0 mph 88 % 0.01 in 83 W/m2
10:08 45.1 °F 41.8 °F 29.19 in WNW 23.0 mph 32.0 mph 88 % 0.01 in 72 W/m2
10:10 45.1 °F 41.5 °F 29.20 in WNW 21.0 mph 32.0 mph 87 % 0.00 in 104 W/m2
10:15 45.1 °F 41.5 °F 29.20 in WNW 25.0 mph 43.0 mph 87 % 0.00 in 81 W/m2
10:20 45.1 °F 41.8 °F 29.20 in WNW 25.0 mph 37.0 mph 88 % 0.01 in 69 W/m2
10:21 45.1 °F 41.8 °F 29.21 in WNW 26.0 mph 38.0 mph 88 % 0.01 in 81 W/m2
10:30 45.0 °F 41.9 °F 29.21 in West 23.0 mph 35.0 mph 89 % 0.02 in 47 W/m2
10:33 44.8 °F 41.4 °F 29.22 in WNW 24.0 mph 35.0 mph 88 % 0.02 in 37 W/m2
10:35 45.0 °F 41.6 °F 29.22 in WNW 24.0 mph 37.0 mph 88 % 0.02 in 35 W/m2
10:40 45.0 °F 41.6 °F 29.22 in West 20.0 mph 30.0 mph 88 % 0.02 in 42 W/m2
10:41 45.1 °F 41.5 °F 29.22 in West 18.0 mph 30.0 mph 87 % 0.02 in 60 W/m2
10:43 45.1 °F 41.5 °F 29.22 in West 19.0 mph 27.0 mph 87 % 0.02 in 70 W/m2
10:46 45.1 °F 41.5 °F 29.22 in West 23.0 mph 35.0 mph 87 % 0.02 in 39 W/m2
10:50 45.3 °F 41.4 °F 29.22 in WNW 26.0 mph 41.0 mph 86 % 0.02 in 47 W/m2
10:55 45.5 °F 41.6 °F 29.23 in West 24.0 mph 38.0 mph 86 % 0.02 in 81 W/m2
10:56 45.5 °F 41.3 °F 29.23 in West 24.0 mph 38.0 mph 85 % 0.02 in 91 W/m2
11:01 45.7 °F 41.4 °F 29.23 in WNW 24.0 mph 39.0 mph 85 % 0.02 in 97 W/m2
11:03 45.7 °F 41.4 °F 29.23 in WNW 24.0 mph 37.0 mph 85 % 0.02 in 220 W/m2
11:06 45.9 °F 41.6 °F 29.23 in West 23.0 mph 34.0 mph 85 % 0.02 in 250 W/m2
11:09 46.2 °F 42.0 °F 29.23 in West 26.0 mph 40.0 mph 85 % 0.02 in 279 W/m2
11:14 46.8 °F 41.9 °F 29.23 in WNW 28.0 mph 40.0 mph 83 % 0.02 in 230 W/m2
11:15 46.8 °F 41.9 °F 29.23 in WNW 27.0 mph 40.0 mph 83 % 0.02 in 230 W/m2
11:18 46.9 °F 42.0 °F 29.23 in West 21.0 mph 36.0 mph 83 % 0.02 in 100 W/m2
11:22 46.8 °F 41.2 °F 29.23 in West 25.0 mph 36.0 mph 81 % 0.01 in 39 W/m2
11:27 46.6 °F 41.4 °F 29.24 in West 24.0 mph 35.0 mph 82 % 0.01 in 109 W/m2
11:31 46.4 °F 41.5 °F 29.23 in WNW 23.0 mph 30.0 mph 83 % 0.01 in 69 W/m2
11:36 45.9 °F 41.3 °F 29.23 in West 19.0 mph 30.0 mph 84 % 0.01 in 62 W/m2
11:37 45.9 °F 41.3 °F 29.23 in West 22.0 mph 30.0 mph 84 % 0.01 in 62 W/m2
11:42 45.7 °F 41.4 °F 29.24 in West 23.0 mph 34.0 mph 85 % 0.01 in 90 W/m2
11:47 45.3 °F 41.4 °F 29.24 in West 25.0 mph 35.0 mph 86 % 0.01 in 113 W/m2
11:50 45.3 °F 41.4 °F 29.24 in WNW 24.0 mph 42.0 mph 86 % 0.02 in 125 W/m2
11:53 45.5 °F 41.6 °F 29.24 in WNW 24.0 mph 32.0 mph 86 % 0.02 in 42 W/m2
11:56 45.5 °F 41.6 °F 29.24 in WNW 23.0 mph 34.0 mph 86 % 0.02 in 42 W/m2
11:58 45.5 °F 41.3 °F 29.24 in West 24.0 mph 38.0 mph 85 % 0.02 in 65 W/m2
12:01 45.7 °F 41.4 °F 29.24 in West 23.0 mph 34.0 mph 85 % 0.01 in 98 W/m2
12:03 45.7 °F 41.4 °F 29.25 in West 22.0 mph 31.0 mph 85 % 0.01 in 93 W/m2
12:08 45.7 °F 41.4 °F 29.26 in West 23.0 mph 36.0 mph 85 % 0.01 in 167 W/m2
12:09 45.7 °F 41.4 °F 29.26 in West 25.0 mph 37.0 mph 85 % 0.01 in 260 W/m2
12:12 45.9 °F 41.6 °F 29.26 in West 25.0 mph 36.0 mph 85 % 0.01 in 132 W/m2
12:14 46.0 °F 41.5 °F 29.26 in West 24.0 mph 39.0 mph 84 % 0.01 in 90 W/m2
12:19 46.0 °F 41.5 °F 29.27 in West 24.0 mph 39.0 mph 84 % 0.01 in 76 W/m2
12:20 46.0 °F 41.5 °F 29.27 in West 24.0 mph 39.0 mph 84 % 0.01 in 77 W/m2
12:25 46.2 °F 41.7 °F 29.28 in WNW 23.0 mph 35.0 mph 84 % 0.01 in 46 W/m2
12:27 46.2 °F 41.3 °F 29.28 in West 23.0 mph 34.0 mph 83 % 0.01 in 46 W/m2
12:35 46.2 °F 41.3 °F 29.29 in West 20.0 mph 35.0 mph 83 % 0.01 in 84 W/m2
12:40 46.2 °F 41.3 °F 29.30 in West 21.0 mph 32.0 mph 83 % 0.01 in 105 W/m2
12:44 46.6 °F 41.4 °F 29.30 in West 22.0 mph 32.0 mph 82 % 0.01 in 163 W/m2
12:49 46.8 °F 41.2 °F 29.30 in West 23.0 mph 34.0 mph 81 % 0.00 in 33 W/m2
12:50 46.8 °F 40.9 °F 29.30 in WNW 20.0 mph 32.0 mph 80 % 0.00 in 33 W/m2
12:55 46.8 °F 40.9 °F 29.30 in West 22.0 mph 30.0 mph 80 % 0.00 in 32 W/m2
13:00 46.8 °F 40.9 °F 29.31 in West 18.0 mph 28.0 mph 80 % 0.00 in 54 W/m2
13:05 46.8 °F 40.9 °F 29.31 in West 17.0 mph 27.0 mph 80 % 0.00 in 60 W/m2
13:10 46.8 °F 40.9 °F 29.31 in West 21.0 mph 30.0 mph 80 % 0.00 in 72 W/m2
13:16 46.8 °F 41.2 °F 29.32 in West 21.0 mph 34.0 mph 81 % 0.00 in 65 W/m2
13:18 46.8 °F 41.6 °F 29.32 in West 19.0 mph 30.0 mph 82 % 0.00 in 33 W/m2
13:19 46.8 °F 41.6 °F 29.32 in West 20.0 mph 30.0 mph 82 % 0.00 in 26 W/m2
13:26 45.7 °F 41.1 °F 29.32 in West 23.0 mph 35.0 mph 84 % 0.01 in 16 W/m2
13:31 45.0 °F 41.0 °F 29.34 in West 21.0 mph 36.0 mph 86 % 0.02 in 16 W/m2
13:36 44.1 °F 40.4 °F 29.33 in West 21.0 mph 33.0 mph 87 % 0.03 in 7 W/m2
13:41 43.3 °F 40.0 °F 29.32 in West 16.0 mph 27.0 mph 88 % 0.04 in 33 W/m2
13:46 43.0 °F 40.0 °F 29.32 in West 16.0 mph 25.0 mph 89 % 0.05 in 23 W/m2
13:49 42.8 °F 40.1 °F 29.32 in West 17.0 mph 27.0 mph 90 % 0.05 in 21 W/m2
13:54 43.2 °F 40.7 °F 29.32 in West 16.0 mph 25.0 mph 91 % 0.05 in 18 W/m2
13:55 43.3 °F 40.9 °F 29.32 in West 15.0 mph 25.0 mph 91 % 0.05 in 18 W/m2
13:56 43.3 °F 40.9 °F 29.32 in West 14.0 mph 27.0 mph 91 % 0.05 in 19 W/m2
14:01 43.3 °F 40.9 °F 29.33 in West 15.0 mph 25.0 mph 91 % 0.05 in 18 W/m2
14:02 43.3 °F 40.9 °F 29.33 in West 16.0 mph 25.0 mph 91 % 0.05 in 18 W/m2
14:03 43.3 °F 40.9 °F 29.32 in West 17.0 mph 26.0 mph 91 % 0.06 in 54 W/m2
14:08 43.7 °F 41.0 °F 29.33 in West 15.0 mph 24.0 mph 90 % 0.06 in 60 W/m2
14:09 43.9 °F 41.1 °F 29.33 in West 14.0 mph 24.0 mph 90 % 0.06 in 60 W/m2
14:12 44.1 °F 41.3 °F 29.33 in West 21.0 mph 32.0 mph 90 % 0.06 in 47 W/m2
14:15 44.2 °F 41.5 °F 29.33 in West 13.0 mph 22.0 mph 90 % 0.06 in 40 W/m2
14:20 44.4 °F 41.4 °F 29.33 in West 16.0 mph 23.0 mph 89 % 0.06 in 69 W/m2
14:21 44.4 °F 41.4 °F 29.33 in West 16.0 mph 23.0 mph 89 % 0.06 in 56 W/m2
14:25 44.8 °F 41.7 °F 29.33 in West 13.0 mph 20.0 mph 89 % 0.05 in 37 W/m2
14:26 44.8 °F 41.4 °F 29.33 in West 14.0 mph 20.0 mph 88 % 0.05 in 42 W/m2
14:31 44.8 °F 41.4 °F 29.33 in West 15.0 mph 24.0 mph 88 % 0.04 in 56 W/m2
14:36 44.8 °F 41.4 °F 29.33 in West 15.0 mph 27.0 mph 88 % 0.02 in 44 W/m2
14:42 45.0 °F 41.6 °F 29.32 in West 19.0 mph 32.0 mph 88 % 0.02 in 30 W/m2
14:47 45.0 °F 41.6 °F 29.33 in West 20.0 mph 32.0 mph 88 % 0.01 in 51 W/m2
14:52 45.1 °F 41.5 °F 29.32 in WSW 18.0 mph 27.0 mph 87 % 0.01 in 47 W/m2
14:57 45.1 °F 41.5 °F 29.32 in West 14.0 mph 22.0 mph 87 % 0.01 in 14 W/m2
14:58 45.1 °F 41.5 °F 29.32 in West 17.0 mph 29.0 mph 87 % 0.01 in 14 W/m2
15:03 45.3 °F 41.4 °F 29.32 in West 21.0 mph 33.0 mph 86 % 0.00 in 14 W/m2
15:05 45.3 °F 41.4 °F 29.32 in West 20.0 mph 33.0 mph 86 % 0.00 in 14 W/m2
15:06 45.3 °F 41.4 °F 29.32 in West 16.0 mph 24.0 mph 86 % 0.00 in 12 W/m2
15:11 45.1 °F 41.2 °F 29.33 in West 21.0 mph 31.0 mph 86 % 0.00 in 16 W/m2
15:15 45.0 °F 41.3 °F 29.32 in West 20.0 mph 32.0 mph 87 % 0.00 in 9 W/m2
15:16 44.8 °F 41.1 °F 29.32 in West 18.0 mph 32.0 mph 87 % 0.00 in 9 W/m2
15:20 44.6 °F 41.3 °F 29.33 in West 18.0 mph 26.0 mph 88 % 0.00 in 9 W/m2
15:24 44.4 °F 41.4 °F 29.32 in West 18.0 mph 27.0 mph 89 % 0.00 in 9 W/m2
15:28 44.4 °F 41.4 °F 29.33 in West 17.0 mph 31.0 mph 89 % 0.00 in 7 W/m2
15:33 44.4 °F 41.4 °F 29.33 in West 18.0 mph 32.0 mph 89 % 0.00 in 7 W/m2
15:36 44.6 °F 41.6 °F 29.33 in West 20.0 mph 30.0 mph 89 % 0.01 in 5 W/m2
15:41 44.8 °F 41.7 °F 29.33 in West 19.0 mph 27.0 mph 89 % 0.01 in 7 W/m2
15:42 44.8 °F 41.7 °F 29.33 in West 19.0 mph 28.0 mph 89 % 0.01 in 7 W/m2
15:47 45.0 °F 41.6 °F 29.33 in West 23.0 mph 37.0 mph 88 % 0.01 in 5 W/m2
15:48 45.0 °F 41.6 °F 29.33 in West 23.0 mph 37.0 mph 88 % 0.01 in 5 W/m2
15:51 45.1 °F 41.8 °F 29.33 in West 23.0 mph 36.0 mph 88 % 0.01 in 0 W/m2
15:56 45.1 °F 41.5 °F 29.33 in West 18.0 mph 33.0 mph 87 % 0.01 in 5 W/m2
16:00 45.0 °F 41.6 °F 29.33 in West 21.0 mph 32.0 mph 88 % 0.01 in 0 W/m2
16:01 45.0 °F 41.6 °F 29.33 in West 22.0 mph 33.0 mph 88 % 0.01 in 0 W/m2
16:06 45.0 °F 41.6 °F 29.33 in West 23.0 mph 38.0 mph 88 % 0.01 in 0 W/m2
16:11 45.0 °F 41.9 °F 29.32 in West 19.0 mph 33.0 mph 89 % 0.01 in 0 W/m2
16:13 45.0 °F 41.9 °F 29.32 in West 22.0 mph 30.0 mph 89 % 0.01 in 0 W/m2
16:18 45.1 °F 41.8 °F 29.32 in West 19.0 mph 28.0 mph 88 % 0.01 in 0 W/m2
16:23 45.1 °F 41.8 °F 29.32 in West 22.0 mph 33.0 mph 88 % 0.02 in 0 W/m2
16:24 45.1 °F 41.8 °F 29.32 in West 22.0 mph 33.0 mph 88 % 0.02 in 0 W/m2
16:28 45.1 °F 41.8 °F 29.33 in West 21.0 mph 38.0 mph 88 % 0.02 in 0 W/m2
16:30 45.1 °F 41.8 °F 29.33 in West 21.0 mph 34.0 mph 88 % 0.02 in 0 W/m2
16:35 45.5 °F 41.6 °F 29.33 in West 24.0 mph 33.0 mph 86 % 0.01 in 0 W/m2
16:40 45.7 °F 41.4 °F 29.34 in West 21.0 mph 31.0 mph 85 % 0.01 in 0 W/m2
16:41 45.9 °F 41.6 °F 29.34 in West 22.0 mph 31.0 mph 85 % 0.01 in 0 W/m2
16:42 45.9 °F 41.6 °F 29.34 in West 23.0 mph 34.0 mph 85 % 0.01 in 0 W/m2
16:46 46.0 °F 41.5 °F 29.34 in WSW 24.0 mph 33.0 mph 84 % 0.01 in 0 W/m2
16:54 46.0 °F 41.5 °F 29.34 in West 20.0 mph 31.0 mph 84 % 0.01 in 0 W/m2
16:59 45.7 °F 41.7 °F 29.35 in WSW 18.0 mph 32.0 mph 86 % 0.01 in 0 W/m2
17:04 45.1 °F 41.5 °F 29.34 in WSW 18.0 mph 30.0 mph 87 % 0.01 in 0 W/m2
17:06 45.1 °F 41.5 °F 29.35 in WSW 18.0 mph 32.0 mph 87 % 0.01 in 0 W/m2
17:11 45.1 °F 41.5 °F 29.35 in West 16.0 mph 26.0 mph 87 % 0.01 in 0 W/m2
17:12 45.1 °F 41.5 °F 29.35 in WSW 17.0 mph 30.0 mph 87 % 0.01 in 0 W/m2
17:14 45.1 °F 41.5 °F 29.35 in WSW 21.0 mph 30.0 mph 87 % 0.01 in 0 W/m2
17:19 45.3 °F 41.4 °F 29.35 in West 22.0 mph 34.0 mph 86 % 0.01 in 0 W/m2
17:20 45.3 °F 41.4 °F 29.35 in West 18.0 mph 29.0 mph 86 % 0.01 in 0 W/m2
17:23 45.3 °F 41.4 °F 29.36 in WSW 19.0 mph 28.0 mph 86 % 0.00 in 0 W/m2
17:27 45.3 °F 41.4 °F 29.36 in West 19.0 mph 30.0 mph 86 % 0.00 in 0 W/m2
17:29 45.3 °F 41.4 °F 29.35 in West 21.0 mph 30.0 mph 86 % 0.00 in 0 W/m2
17:32 45.3 °F 41.4 °F 29.35 in WSW 19.0 mph 30.0 mph 86 % 0.00 in 0 W/m2
17:37 45.3 °F 41.4 °F 29.36 in West 19.0 mph 25.0 mph 86 % 0.00 in 0 W/m2
17:38 45.3 °F 41.4 °F 29.36 in West 20.0 mph 29.0 mph 86 % 0.00 in 0 W/m2
17:43 45.7 °F 41.4 °F 29.36 in West 19.0 mph 27.0 mph 85 % 0.00 in 0 W/m2
17:44 45.7 °F 41.4 °F 29.35 in West 19.0 mph 27.0 mph 85 % 0.00 in 0 W/m2
17:49 45.9 °F 41.3 °F 29.36 in WSW 17.0 mph 26.0 mph 84 % 0.00 in 0 W/m2
17:50 45.9 °F 41.3 °F 29.36 in WSW 15.0 mph 26.0 mph 84 % 0.00 in 0 W/m2
17:56 45.7 °F 41.4 °F 29.36 in West 14.0 mph 23.0 mph 85 % 0.00 in 0 W/m2
18:00 45.5 °F 41.3 °F 29.36 in West 15.0 mph 23.0 mph 85 % 0.00 in 0 W/m2
18:02 45.3 °F 41.4 °F 29.36 in WSW 19.0 mph 28.0 mph 86 % 0.00 in 0 W/m2
18:05 45.3 °F 41.4 °F 29.36 in West 16.0 mph 26.0 mph 86 % 0.00 in 0 W/m2
18:09 45.1 °F 41.5 °F 29.36 in West 19.0 mph 26.0 mph 87 % 0.00 in 0 W/m2
18:12 45.1 °F 41.5 °F 29.36 in WSW 16.0 mph 26.0 mph 87 % 0.00 in 0 W/m2
18:15 45.1 °F 41.5 °F 29.36 in West 16.0 mph 24.0 mph 87 % 0.00 in 0 W/m2
18:20 45.3 °F 41.7 °F 29.36 in West 18.0 mph 28.0 mph 87 % 0.00 in 0 W/m2
18:22 45.5 °F 41.6 °F 29.36 in WSW 22.0 mph 32.0 mph 86 % 0.00 in 0 W/m2
18:27 45.7 °F 41.4 °F 29.37 in West 19.0 mph 33.0 mph 85 % 0.00 in 0 W/m2
18:28 45.7 °F 41.4 °F 29.36 in West 20.0 mph 33.0 mph 85 % 0.00 in 0 W/m2
18:34 45.9 °F 41.6 °F 29.36 in West 16.0 mph 28.0 mph 85 % 0.00 in 0 W/m2
18:37 45.9 °F 41.3 °F 29.37 in West 20.0 mph 34.0 mph 84 % 0.00 in 0 W/m2
18:42 46.0 °F 41.5 °F 29.37 in West 18.0 mph 32.0 mph 84 % 0.00 in 0 W/m2
18:45 45.9 °F 41.6 °F 29.37 in WSW 19.0 mph 28.0 mph 85 % 0.00 in 0 W/m2
18:50 45.9 °F 41.6 °F 29.37 in West 16.0 mph 25.0 mph 85 % 0.00 in 0 W/m2
18:56 45.5 °F 41.6 °F 29.37 in West 17.0 mph 25.0 mph 86 % 0.00 in 0 W/m2
18:57 45.5 °F 41.6 °F 29.37 in WSW 17.0 mph 25.0 mph 86 % 0.00 in 0 W/m2
19:02 45.3 °F 41.7 °F 29.37 in WSW 13.0 mph 18.0 mph 87 % 0.00 in 0 W/m2
19:06 45.1 °F 41.8 °F 29.37 in West 16.0 mph 23.0 mph 88 % 0.00 in 0 W/m2
19:08 45.1 °F 41.8 °F 29.37 in WSW 15.0 mph 24.0 mph 88 % 0.00 in 0 W/m2
19:13 45.1 °F 41.5 °F 29.37 in WSW 15.0 mph 24.0 mph 87 % 0.00 in 0 W/m2
19:14 45.1 °F 41.5 °F 29.37 in WSW 14.0 mph 24.0 mph 87 % 0.00 in 0 W/m2
19:19 45.3 °F 41.7 °F 29.37 in WSW 18.0 mph 25.0 mph 87 % 0.00 in 0 W/m2
19:22 45.5 °F 41.6 °F 29.37 in WSW 16.0 mph 22.0 mph 86 % 0.00 in 0 W/m2
19:27 45.5 °F 41.6 °F 29.37 in West 18.0 mph 26.0 mph 86 % 0.00 in 0 W/m2
19:29 45.5 °F 41.6 °F 29.37 in WSW 14.0 mph 21.0 mph 86 % 0.00 in 0 W/m2
19:34 45.3 °F 41.7 °F 29.37 in West 17.0 mph 30.0 mph 87 % 0.01 in 0 W/m2
19:35 45.3 °F 41.7 °F 29.37 in West 18.0 mph 30.0 mph 87 % 0.01 in 0 W/m2
19:39 45.1 °F 41.5 °F 29.37 in West 14.0 mph 21.0 mph 87 % 0.01 in 0 W/m2
19:44 45.1 °F 41.8 °F 29.37 in West 14.0 mph 23.0 mph 88 % 0.01 in 0 W/m2
19:46 45.0 °F 41.9 °F 29.37 in West 15.0 mph 26.0 mph 89 % 0.02 in 0 W/m2
19:51 44.8 °F 41.7 °F 29.38 in West 14.0 mph 22.0 mph 89 % 0.02 in 0 W/m2
19:53 44.8 °F 42.0 °F 29.38 in West 11.0 mph 19.0 mph 90 % 0.02 in 0 W/m2
19:58 44.6 °F 41.8 °F 29.38 in West 12.0 mph 18.0 mph 90 % 0.02 in 0 W/m2
20:00 44.6 °F 41.8 °F 29.38 in West 13.0 mph 21.0 mph 90 % 0.02 in 0 W/m2
20:05 44.8 °F 42.0 °F 29.37 in West 13.0 mph 23.0 mph 90 % 0.02 in 0 W/m2
20:06 44.8 °F 42.0 °F 29.37 in West 15.0 mph 23.0 mph 90 % 0.02 in 0 W/m2
20:15 45.0 °F 41.9 °F 29.37 in West 14.0 mph 22.0 mph 89 % 0.02 in 0 W/m2
20:17 45.0 °F 41.9 °F 29.37 in West 13.0 mph 20.0 mph 89 % 0.02 in 0 W/m2
20:23 45.0 °F 41.9 °F 29.37 in WSW 12.0 mph 22.0 mph 89 % 0.02 in 0 W/m2
20:28 45.0 °F 42.2 °F 29.36 in West 13.0 mph 19.0 mph 90 % 0.03 in 0 W/m2
20:30 44.8 °F 42.0 °F 29.37 in West 14.0 mph 22.0 mph 90 % 0.03 in 0 W/m2
20:33 44.8 °F 42.0 °F 29.36 in West 16.0 mph 21.0 mph 90 % 0.02 in 0 W/m2
20:35 44.8 °F 42.0 °F 29.36 in West 17.0 mph 27.0 mph 90 % 0.02 in 0 W/m2
20:40 44.8 °F 42.0 °F 29.36 in WSW 16.0 mph 23.0 mph 90 % 0.02 in 0 W/m2
20:42 44.8 °F 42.0 °F 29.36 in West 15.0 mph 23.0 mph 90 % 0.02 in 0 W/m2
20:47 44.8 °F 42.0 °F 29.36 in West 15.0 mph 27.0 mph 90 % 0.02 in 0 W/m2
20:48 44.8 °F 42.0 °F 29.36 in West 15.0 mph 27.0 mph 90 % 0.02 in 0 W/m2
20:53 44.6 °F 41.8 °F 29.36 in WSW 14.0 mph 25.0 mph 90 % 0.02 in 0 W/m2
20:55 44.6 °F 41.8 °F 29.36 in West 13.0 mph 25.0 mph 90 % 0.02 in 0 W/m2
20:56 44.6 °F 42.1 °F 29.36 in West 15.0 mph 24.0 mph 91 % 0.02 in 0 W/m2
21:01 44.6 °F 41.8 °F 29.36 in West 17.0 mph 23.0 mph 90 % 0.02 in 0 W/m2
21:03 44.8 °F 42.0 °F 29.36 in West 15.0 mph 24.0 mph 90 % 0.02 in 0 W/m2
21:08 44.8 °F 42.0 °F 29.36 in West 15.0 mph 23.0 mph 90 % 0.02 in 0 W/m2
21:13 44.8 °F 42.0 °F 29.36 in West 18.0 mph 28.0 mph 90 % 0.02 in 0 W/m2
21:18 44.8 °F 42.0 °F 29.36 in West 19.0 mph 30.0 mph 90 % 0.02 in 0 W/m2
21:24 44.8 °F 42.0 °F 29.35 in WSW 22.0 mph 33.0 mph 90 % 0.02 in 0 W/m2
21:29 45.0 °F 41.9 °F 29.35 in WSW 19.0 mph 28.0 mph 89 % 0.01 in 0 W/m2
21:30 45.0 °F 41.9 °F 29.35 in WSW 17.0 mph 28.0 mph 89 % 0.01 in 0 W/m2
21:35 45.0 °F 41.9 °F 29.35 in West 23.0 mph 32.0 mph 89 % 0.01 in 0 W/m2
21:40 45.0 °F 41.9 °F 29.36 in WSW 19.0 mph 31.0 mph 89 % 0.01 in 0 W/m2
21:45 45.0 °F 41.9 °F 29.36 in West 17.0 mph 27.0 mph 89 % 0.01 in 0 W/m2
21:49 45.0 °F 41.9 °F 29.36 in West 19.0 mph 27.0 mph 89 % 0.00 in 0 W/m2
21:51 45.0 °F 41.9 °F 29.37 in West 18.0 mph 29.0 mph 89 % 0.00 in 0 W/m2
21:56 45.0 °F 41.9 °F 29.36 in West 16.0 mph 25.0 mph 89 % 0.00 in 0 W/m2
21:58 44.8 °F 41.7 °F 29.36 in West 17.0 mph 28.0 mph 89 % 0.00 in 0 W/m2
22:02 45.0 °F 41.9 °F 29.36 in West 19.0 mph 29.0 mph 89 % 0.00 in 0 W/m2
22:07 45.0 °F 41.6 °F 29.36 in WSW 15.0 mph 23.0 mph 88 % 0.00 in 0 W/m2
22:08 45.0 °F 41.6 °F 29.36 in WSW 17.0 mph 23.0 mph 88 % 0.00 in 0 W/m2
22:12 45.1 °F 41.8 °F 29.37 in West 18.0 mph 27.0 mph 88 % 0.00 in 0 W/m2
22:14 45.0 °F 41.6 °F 29.37 in WSW 16.0 mph 25.0 mph 88 % 0.00 in 0 W/m2
22:18 45.0 °F 41.9 °F 29.38 in West 17.0 mph 25.0 mph 89 % 0.00 in 0 W/m2
22:22 44.8 °F 42.0 °F 29.37 in West 15.0 mph 22.0 mph 90 % 0.00 in 0 W/m2
22:27 44.8 °F 42.0 °F 29.37 in West 16.0 mph 26.0 mph 90 % 0.00 in 0 W/m2
22:32 44.8 °F 42.0 °F 29.38 in West 16.0 mph 25.0 mph 90 % 0.00 in 0 W/m2
22:33 44.8 °F 42.0 °F 29.38 in West 16.0 mph 25.0 mph 90 % 0.00 in 0 W/m2
22:34 44.8 °F 42.0 °F 29.38 in West 13.0 mph 23.0 mph 90 % 0.00 in 0 W/m2
22:39 44.8 °F 42.0 °F 29.38 in West 15.0 mph 24.0 mph 90 % 0.00 in 0 W/m2
22:40 44.8 °F 42.0 °F 29.38 in West 15.0 mph 22.0 mph 90 % 0.00 in 0 W/m2
22:44 45.0 °F 42.2 °F 29.38 in West 16.0 mph 25.0 mph 90 % 0.00 in 0 W/m2
22:49 45.1 °F 42.1 °F 29.38 in West 13.0 mph 23.0 mph 89 % 0.01 in 0 W/m2
22:50 45.1 °F 42.1 °F 29.38 in West 14.0 mph 23.0 mph 89 % 0.01 in 0 W/m2
22:55 45.1 °F 42.1 °F 29.38 in West 14.0 mph 22.0 mph 89 % 0.01 in 0 W/m2
23:01 45.1 °F 41.8 °F 29.37 in West 15.0 mph 23.0 mph 88 % 0.01 in 0 W/m2
23:03 45.1 °F 41.8 °F 29.37 in West 13.0 mph 22.0 mph 88 % 0.01 in 0 W/m2
23:07 45.0 °F 41.6 °F 29.37 in West 13.0 mph 23.0 mph 88 % 0.01 in 0 W/m2
23:08 45.0 °F 41.6 °F 29.37 in West 13.0 mph 23.0 mph 88 % 0.01 in 0 W/m2
23:13 44.8 °F 41.7 °F 29.37 in West 16.0 mph 26.0 mph 89 % 0.01 in 0 W/m2
23:14 44.8 °F 41.7 °F 29.37 in West 15.0 mph 26.0 mph 89 % 0.01 in 0 W/m2
23:20 45.0 °F 41.9 °F 29.37 in West 18.0 mph 32.0 mph 89 % 0.01 in 0 W/m2
23:23 45.0 °F 41.9 °F 29.37 in West 18.0 mph 30.0 mph 89 % 0.01 in 0 W/m2
23:26 45.1 °F 42.1 °F 29.37 in West 16.0 mph 25.0 mph 89 % 0.01 in 0 W/m2
23:30 45.1 °F 42.1 °F 29.36 in West 18.0 mph 31.0 mph 89 % 0.01 in 0 W/m2
23:33 45.1 °F 42.1 °F 29.36 in West 16.0 mph 22.0 mph 89 % 0.01 in 0 W/m2
23:37 45.1 °F 41.8 °F 29.36 in West 15.0 mph 22.0 mph 88 % 0.01 in 0 W/m2
23:39 45.0 °F 41.6 °F 29.36 in West 14.0 mph 23.0 mph 88 % 0.01 in 0 W/m2
23:42 45.0 °F 41.6 °F 29.36 in West 13.0 mph 21.0 mph 88 % 0.01 in 0 W/m2
23:46 45.0 °F 41.6 °F 29.36 in West 17.0 mph 25.0 mph 88 % 0.00 in 0 W/m2
23:48 45.0 °F 41.6 °F 29.36 in West 18.0 mph 28.0 mph 88 % 0.00 in 0 W/m2
Delerius-Weather
Compliments of Weather Underground - 3 mb

Data updates at regular intervals.